Time,TemperatureF,DewpointF,PressureIn,WindDirection,WindDirectionDegrees,WindSpeedMPH,WindSpeedGustMPH,Humidity,HourlyPrecipIn,Conditions,Clouds,dailyrainin,SoftwareType,DateUTC
2013-10-02 00:07:00,60.8,58.5,29.89,ESE,112,0.0,-999.0,92,-99.99,,,0.00,Acu-Link.com,2013-10-02 04:07:00,
2013-10-02 00:22:00,60.8,58.5,29.89,ESE,112,0.0,-999.0,92,-99.99,,,0.00,Acu-Link.com,2013-10-02 04:22:00,
2013-10-02 00:38:00,60.8,58.8,29.89,ESE,112,0.0,-999.0,93,-99.99,,,0.00,Acu-Link.com,2013-10-02 04:38:00,
2013-10-02 00:53:00,60.8,58.8,29.88,ESE,112,0.0,-999.0,93,-99.99,,,0.00,Acu-Link.com,2013-10-02 04:53:00,
2013-10-02 01:08:00,60.8,58.8,29.88,ESE,112,0.0,-999.0,93,-99.99,,,0.00,Acu-Link.com,2013-10-02 05:08:00,
2013-10-02 01:23:00,60.8,59.4,29.89,East,90,0.0,-999.0,95,-99.99,,,0.00,Acu-Link.com,2013-10-02 05:23:00,
2013-10-02 01:38:00,60.8,59.4,29.88,East,90,0.0,-999.0,95,-99.99,,,0.00,Acu-Link.com,2013-10-02 05:38:00,
2013-10-02 01:54:00,60.8,59.7,29.89,East,90,0.0,-999.0,96,-99.99,,,0.00,Acu-Link.com,2013-10-02 05:54:00,
2013-10-02 02:09:00,60.8,59.7,29.89,East,90,0.0,-999.0,96,-99.99,,,0.00,Acu-Link.com,2013-10-02 06:09:00,
2013-10-02 02:26:00,60.8,59.7,29.89,East,90,0.0,-999.0,96,-99.99,,,0.00,Acu-Link.com,2013-10-02 06:26:00,
2013-10-02 02:41:00,60.8,59.9,29.89,East,90,0.0,-999.0,97,-99.99,,,0.00,Acu-Link.com,2013-10-02 06:41:00,
2013-10-02 02:56:00,60.8,59.9,29.89,East,90,0.0,-999.0,97,-99.99,,,0.35,Acu-Link.com,2013-10-02 06:56:00,
2013-10-02 03:13:00,60.8,59.9,29.89,East,90,0.0,-999.0,97,-99.99,,,0.35,Acu-Link.com,2013-10-02 07:13:00,
2013-10-02 03:28:00,60.8,59.9,29.89,East,90,0.0,-999.0,97,-99.99,,,0.35,Acu-Link.com,2013-10-02 07:28:00,
2013-10-02 03:44:00,60.8,59.9,29.89,East,90,0.0,-999.0,97,-99.99,,,0.35,Acu-Link.com,2013-10-02 07:44:00,
2013-10-02 03:59:00,60.8,59.9,29.88,East,90,0.0,-999.0,97,-99.99,,,0.35,Acu-Link.com,2013-10-02 07:59:00,
2013-10-02 04:14:00,59.0,58.1,29.88,ENE,67,0.0,-999.0,97,-99.99,,,0.35,Acu-Link.com,2013-10-02 08:14:00,
2013-10-02 04:29:00,59.0,58.1,29.88,ENE,67,0.0,-999.0,97,-99.99,,,0.35,Acu-Link.com,2013-10-02 08:29:00,
2013-10-02 04:45:00,59.0,58.1,29.88,East,90,0.0,-999.0,97,-99.99,,,0.35,Acu-Link.com,2013-10-02 08:45:00,
2013-10-02 05:00:00,59.0,58.4,29.88,East,90,0.0,-999.0,98,-99.99,,,0.35,Acu-Link.com,2013-10-02 09:00:00,
2013-10-02 05:15:00,59.0,58.4,29.88,East,90,0.0,-999.0,98,-99.99,,,0.35,Acu-Link.com,2013-10-02 09:15:00,
2013-10-02 05:30:00,59.0,58.4,29.88,East,90,0.0,-999.0,98,-99.99,,,0.35,Acu-Link.com,2013-10-02 09:30:00,
2013-10-02 05:46:00,59.0,58.7,29.88,ESE,112,0.0,-999.0,99,-99.99,,,0.35,Acu-Link.com,2013-10-02 09:46:00,
2013-10-02 06:01:00,59.0,58.7,29.88,ESE,112,0.0,-999.0,99,-99.99,,,0.35,Acu-Link.com,2013-10-02 10:01:00,
2013-10-02 06:16:00,57.2,56.9,29.89,ESE,112,0.0,-999.0,99,-99.99,,,0.35,Acu-Link.com,2013-10-02 10:16:00,
2013-10-02 06:31:00,59.0,58.7,29.89,ESE,112,0.0,-999.0,99,-99.99,,,0.35,Acu-Link.com,2013-10-02 10:31:00,
2013-10-02 06:46:00,57.2,56.9,29.90,ESE,112,0.0,-999.0,99,-99.99,,,0.35,Acu-Link.com,2013-10-02 10:46:00,
2013-10-02 07:01:00,57.2,56.9,29.90,ESE,112,0.0,-999.0,99,-99.99,,,0.35,Acu-Link.com,2013-10-02 11:01:00,
2013-10-02 07:17:00,57.2,56.9,29.90,ESE,112,0.0,-999.0,99,-99.99,,,0.35,Acu-Link.com,2013-10-02 11:17:00,
2013-10-02 07:32:00,57.2,56.9,29.90,ESE,112,0.0,-999.0,99,-99.99,,,0.35,Acu-Link.com,2013-10-02 11:32:00,
2013-10-02 07:47:00,57.2,56.9,29.91,ESE,112,0.0,-999.0,99,-99.99,,,0.35,Acu-Link.com,2013-10-02 11:47:00,
2013-10-02 08:02:00,57.2,56.9,29.92,ESE,112,0.0,-999.0,99,-99.99,,,0.35,Acu-Link.com,2013-10-02 12:02:00,
2013-10-02 08:17:00,59.0,58.7,29.92,ESE,112,0.0,-999.0,99,-99.99,,,0.35,Acu-Link.com,2013-10-02 12:17:00,
2013-10-02 08:32:00,60.8,60.5,29.93,East,90,0.0,-999.0,99,-99.99,,,0.35,Acu-Link.com,2013-10-02 12:32:00,
2013-10-02 08:47:00,64.4,64.1,29.94,NNE,22,0.0,-999.0,99,-99.99,,,0.35,Acu-Link.com,2013-10-02 12:47:00,
2013-10-02 09:03:00,66.2,65.9,29.94,NNE,22,0.0,-999.0,99,-99.99,,,0.35,Acu-Link.com,2013-10-02 13:03:00,
2013-10-02 09:18:00,68.0,67.4,29.94,East,90,0.0,-999.0,98,-99.99,,,0.35,Acu-Link.com,2013-10-02 13:18:00,
2013-10-02 09:33:00,71.6,64.0,29.95,East,90,0.0,-999.0,77,-99.99,,,0.35,Acu-Link.com,2013-10-02 13:33:00,
2013-10-02 09:48:00,77.0,63.4,29.95,ESE,112,1.6,-999.0,63,-99.99,,,0.35,Acu-Link.com,2013-10-02 13:48:00,
2013-10-02 10:04:00,78.8,63.2,29.95,ESE,112,2.0,-999.0,59,-99.99,,,0.35,Acu-Link.com,2013-10-02 14:04:00,
2013-10-02 10:19:00,78.8,62.3,29.95,SSE,157,3.1,-999.0,57,-99.99,,,0.35,Acu-Link.com,2013-10-02 14:19:00,
2013-10-02 10:34:00,82.4,59.5,29.95,SSE,157,1.6,-999.0,46,-99.99,,,0.35,Acu-Link.com,2013-10-02 14:34:00,
2013-10-02 10:49:00,82.4,61.3,29.95,SSW,202,2.7,-999.0,49,-99.99,,,0.35,Acu-Link.com,2013-10-02 14:49:00,
2013-10-02 11:04:00,80.6,59.1,29.95,South,180,1.6,-999.0,48,-99.99,,,0.35,Acu-Link.com,2013-10-02 15:04:00,
2013-10-02 11:20:00,80.6,59.6,29.95,South,180,3.6,-999.0,49,-99.99,,,0.35,Acu-Link.com,2013-10-02 15:20:00,
2013-10-02 11:35:00,87.8,59.7,29.94,East,90,3.6,-999.0,39,-99.99,,,0.35,Acu-Link.com,2013-10-02 15:35:00,
2013-10-02 11:50:00,84.2,60.5,29.94,SSE,157,4.0,-999.0,45,-99.99,,,0.35,Acu-Link.com,2013-10-02 15:50:00,
2013-10-02 12:05:00,86.0,60.9,29.93,SE,135,2.7,-999.0,43,-99.99,,,0.35,Acu-Link.com,2013-10-02 16:05:00,
2013-10-02 12:21:00,89.6,59.8,29.93,NW,315,4.0,-999.0,37,-99.99,,,0.35,Acu-Link.com,2013-10-02 16:21:00,
2013-10-02 12:36:00,87.8,61.1,29.92,ESE,112,0.0,-999.0,41,-99.99,,,0.35,Acu-Link.com,2013-10-02 16:36:00,
2013-10-02 12:51:00,86.0,60.2,29.92,SSE,157,1.6,-999.0,42,-99.99,,,0.35,Acu-Link.com,2013-10-02 16:51:00,
2013-10-02 13:06:00,86.0,61.5,29.91,SSE,157,4.7,-999.0,44,-99.99,,,0.35,Acu-Link.com,2013-10-02 17:06:00,
2013-10-02 13:21:00,86.0,59.5,29.91,ESE,112,2.7,-999.0,41,-99.99,,,0.35,Acu-Link.com,2013-10-02 17:21:00,
2013-10-02 13:37:00,82.4,58.9,29.90,SSE,157,5.1,-999.0,45,-99.99,,,0.35,Acu-Link.com,2013-10-02 17:37:00,
2013-10-02 13:52:00,86.0,59.5,29.89,SSW,202,0.0,-999.0,41,-99.99,,,0.78,Acu-Link.com,2013-10-02 17:52:00,
2013-10-02 14:07:00,80.6,59.6,29.89,SSE,157,4.0,-999.0,49,-99.99,,,1.35,Acu-Link.com,2013-10-02 18:07:00,
2013-10-02 14:22:00,80.6,58.5,29.88,SSE,157,2.0,-999.0,47,-99.99,,,1.35,Acu-Link.com,2013-10-02 18:22:00,
2013-10-02 14:38:00,80.6,59.1,29.88,South,180,4.7,-999.0,48,-99.99,,,1.35,Acu-Link.com,2013-10-02 18:38:00,
2013-10-02 14:53:00,80.6,59.6,29.88,South,180,5.6,-999.0,49,-99.99,,,1.35,Acu-Link.com,2013-10-02 18:53:00,
2013-10-02 15:08:00,82.4,61.3,29.87,SSW,202,4.0,-999.0,49,-99.99,,,1.35,Acu-Link.com,2013-10-02 19:08:00,
2013-10-02 15:23:00,82.4,61.3,29.87,SSE,157,3.6,-999.0,49,-99.99,,,1.35,Acu-Link.com,2013-10-02 19:23:00,
2013-10-02 15:39:00,82.4,61.3,29.87,WSW,247,1.6,-999.0,49,-99.99,,,1.35,Acu-Link.com,2013-10-02 19:39:00,
2013-10-02 15:54:00,82.4,60.1,29.86,SSW,202,2.0,-999.0,47,-99.99,,,1.35,Acu-Link.com,2013-10-02 19:54:00,
2013-10-02 16:09:00,80.6,58.5,29.86,SSE,157,2.7,-999.0,47,-99.99,,,1.35,Acu-Link.com,2013-10-02 20:09:00,
2013-10-02 16:24:00,82.4,58.3,29.86,West,270,1.6,-999.0,44,-99.99,,,1.35,Acu-Link.com,2013-10-02 20:24:00,
2013-10-02 16:40:00,80.6,60.2,29.86,SSE,157,2.7,-999.0,50,-99.99,,,1.35,Acu-Link.com,2013-10-02 20:40:00,
2013-10-02 16:55:00,82.4,61.3,29.86,South,180,2.7,-999.0,49,-99.99,,,1.35,Acu-Link.com,2013-10-02 20:55:00,
2013-10-02 17:10:00,80.6,59.6,29.86,SE,135,0.0,-999.0,49,-99.99,,,1.35,Acu-Link.com,2013-10-02 21:10:00,
2013-10-02 17:26:00,80.6,60.8,29.86,ESE,112,3.1,-999.0,51,-99.99,,,1.35,Acu-Link.com,2013-10-02 21:26:00,
2013-10-02 17:41:00,78.8,59.7,29.86,West,270,0.0,-999.0,52,-99.99,,,1.35,Acu-Link.com,2013-10-02 21:41:00,
2013-10-02 17:56:00,77.0,59.6,29.86,North,0,1.6,-999.0,55,-99.99,,,1.35,Acu-Link.com,2013-10-02 21:56:00,
2013-10-02 18:11:00,75.2,59.9,29.86,North,0,0.0,-999.0,59,-99.99,,,1.35,Acu-Link.com,2013-10-02 22:11:00,
2013-10-02 18:26:00,73.4,60.5,29.86,North,0,0.0,-999.0,64,-99.99,,,1.35,Acu-Link.com,2013-10-02 22:26:00,
2013-10-02 18:42:00,71.6,60.0,29.86,North,0,0.0,-999.0,67,-99.99,,,1.35,Acu-Link.com,2013-10-02 22:42:00,
2013-10-02 18:57:00,71.6,61.3,29.87,North,0,0.0,-999.0,70,-99.99,,,1.35,Acu-Link.com,2013-10-02 22:57:00,
2013-10-02 19:12:00,69.8,60.7,29.87,North,0,0.0,-999.0,73,-99.99,,,1.35,Acu-Link.com,2013-10-02 23:12:00,
2013-10-02 19:28:00,68.0,59.4,29.87,North,0,0.0,-999.0,74,-99.99,,,1.35,Acu-Link.com,2013-10-02 23:28:00,
2013-10-02 19:43:00,68.0,60.5,29.87,North,0,0.0,-999.0,77,-99.99,,,1.35,Acu-Link.com,2013-10-02 23:43:00,
2013-10-02 19:58:00,68.0,60.9,29.87,North,0,0.0,-999.0,78,-99.99,,,1.35,Acu-Link.com,2013-10-02 23:58:00,
2013-10-02 20:13:00,66.2,60.2,29.87,North,0,0.0,-999.0,81,-99.99,,,1.35,Acu-Link.com,2013-10-03 00:13:00,
2013-10-02 20:29:00,64.4,58.8,29.87,North,0,0.0,-999.0,82,-99.99,,,1.35,Acu-Link.com,2013-10-03 00:29:00,
2013-10-02 20:44:00,64.4,59.5,29.87,North,0,0.0,-999.0,84,-99.99,,,1.35,Acu-Link.com,2013-10-03 00:44:00,
2013-10-02 20:59:00,64.4,59.8,29.88,North,0,0.0,-999.0,85,-99.99,,,1.35,Acu-Link.com,2013-10-03 00:59:00,
2013-10-02 21:14:00,64.4,59.8,29.88,North,0,0.0,-999.0,85,-99.99,,,1.35,Acu-Link.com,2013-10-03 01:14:00,
2013-10-02 21:30:00,62.6,58.0,29.88,North,0,0.0,-999.0,85,-99.99,,,1.35,Acu-Link.com,2013-10-03 01:30:00,
2013-10-02 21:45:00,62.6,58.0,29.88,North,0,0.0,-999.0,85,-99.99,,,1.35,Acu-Link.com,2013-10-03 01:45:00,
2013-10-02 22:00:00,62.6,58.3,29.88,North,0,0.0,-999.0,86,-99.99,,,1.35,Acu-Link.com,2013-10-03 02:00:00,
2013-10-02 22:15:00,62.6,58.3,29.89,North,0,0.0,-999.0,86,-99.99,,,1.35,Acu-Link.com,2013-10-03 02:15:00,
2013-10-02 22:30:00,62.6,58.7,29.89,North,0,0.0,-999.0,87,-99.99,,,1.35,Acu-Link.com,2013-10-03 02:30:00,
2013-10-02 22:46:00,62.6,58.7,29.89,North,0,0.0,-999.0,87,-99.99,,,1.35,Acu-Link.com,2013-10-03 02:46:00,
2013-10-02 23:01:00,62.6,59.0,29.90,North,0,0.0,-999.0,88,-99.99,,,1.35,Acu-Link.com,2013-10-03 03:01:00,
2013-10-02 23:16:00,60.8,57.5,29.90,North,0,0.0,-999.0,89,-99.99,,,1.35,Acu-Link.com,2013-10-03 03:16:00,
2013-10-02 23:31:00,60.8,57.8,29.91,North,0,0.0,-999.0,90,-99.99,,,1.35,Acu-Link.com,2013-10-03 03:31:00,
2013-10-02 23:46:00,60.8,58.5,29.90,North,0,0.0,-999.0,92,-99.99,,,1.35,Acu-Link.com,2013-10-03 03:46:00,